sensor_id;sensor_type;location;lat;lon;timestamp;temperature;humidity
77839;SHT31;67034;43.226;27.932;2023-02-28T00:01:04;6.83;79.12
77839;SHT31;67034;43.226;27.932;2023-02-28T00:03:31;6.62;79.73
77839;SHT31;67034;43.226;27.932;2023-02-28T00:06:01;6.62;79.88
77839;SHT31;67034;43.226;27.932;2023-02-28T00:08:28;6.69;79.86
77839;SHT31;67034;43.226;27.932;2023-02-28T00:10:54;6.80;79.66
77839;SHT31;67034;43.226;27.932;2023-02-28T00:13:19;6.75;79.85
77839;SHT31;67034;43.226;27.932;2023-02-28T00:15:45;6.66;79.72
77839;SHT31;67034;43.226;27.932;2023-02-28T00:18:11;6.61;80.28
77839;SHT31;67034;43.226;27.932;2023-02-28T00:20:37;6.71;79.73
77839;SHT31;67034;43.226;27.932;2023-02-28T00:23:02;6.72;79.70
77839;SHT31;67034;43.226;27.932;2023-02-28T00:25:29;6.64;80.17
77839;SHT31;67034;43.226;27.932;2023-02-28T00:27:55;6.61;80.05
77839;SHT31;67034;43.226;27.932;2023-02-28T00:30:21;6.65;80.56
77839;SHT31;67034;43.226;27.932;2023-02-28T00:32:47;6.71;80.18
77839;SHT31;67034;43.226;27.932;2023-02-28T00:35:13;6.82;79.47
77839;SHT31;67034;43.226;27.932;2023-02-28T00:37:39;6.73;79.83
77839;SHT31;67034;43.226;27.932;2023-02-28T00:40:05;6.72;79.94
77839;SHT31;67034;43.226;27.932;2023-02-28T00:42:33;6.90;79.41
77839;SHT31;67034;43.226;27.932;2023-02-28T00:44:59;6.72;79.79
77839;SHT31;67034;43.226;27.932;2023-02-28T00:47:25;6.66;80.13
77839;SHT31;67034;43.226;27.932;2023-02-28T00:49:50;6.69;80.03
77839;SHT31;67034;43.226;27.932;2023-02-28T00:52:16;6.69;80.05
77839;SHT31;67034;43.226;27.932;2023-02-28T00:54:42;6.80;79.71
77839;SHT31;67034;43.226;27.932;2023-02-28T00:57:07;6.66;80.10
77839;SHT31;67034;43.226;27.932;2023-02-28T00:59:34;6.64;80.12
77839;SHT31;67034;43.226;27.932;2023-02-28T01:02:00;6.68;79.97
77839;SHT31;67034;43.226;27.932;2023-02-28T01:04:25;6.72;79.87
77839;SHT31;67034;43.226;27.932;2023-02-28T01:06:51;6.64;80.04
77839;SHT31;67034;43.226;27.932;2023-02-28T01:09:16;6.61;80.13
77839;SHT31;67034;43.226;27.932;2023-02-28T01:11:42;6.75;80.09
77839;SHT31;67034;43.226;27.932;2023-02-28T01:14:12;6.93;79.07
77839;SHT31;67034;43.226;27.932;2023-02-28T01:16:39;6.77;79.56
77839;SHT31;67034;43.226;27.932;2023-02-28T01:19:05;6.89;78.63
77839;SHT31;67034;43.226;27.932;2023-02-28T01:21:30;6.93;78.55
77839;SHT31;67034;43.226;27.932;2023-02-28T01:23:57;6.90;78.58
77839;SHT31;67034;43.226;27.932;2023-02-28T01:26:23;6.90;78.45
77839;SHT31;67034;43.226;27.932;2023-02-28T01:28:49;6.66;79.67
77839;SHT31;67034;43.226;27.932;2023-02-28T01:31:15;6.64;79.80
77839;SHT31;67034;43.226;27.932;2023-02-28T01:33:42;6.59;80.21
77839;SHT31;67034;43.226;27.932;2023-02-28T01:36:10;6.55;80.27
77839;SHT31;67034;43.226;27.932;2023-02-28T01:38:36;6.42;80.29
77839;SHT31;67034;43.226;27.932;2023-02-28T01:41:02;6.37;80.48
77839;SHT31;67034;43.226;27.932;2023-02-28T01:43:29;6.34;80.98
77839;SHT31;67034;43.226;27.932;2023-02-28T01:45:56;6.41;80.92
77839;SHT31;67034;43.226;27.932;2023-02-28T01:48:24;6.41;80.53
77839;SHT31;67034;43.226;27.932;2023-02-28T01:50:55;6.32;80.77
77839;SHT31;67034;43.226;27.932;2023-02-28T01:53:26;6.32;80.85
77839;SHT31;67034;43.226;27.932;2023-02-28T01:55:53;6.49;80.39
77839;SHT31;67034;43.226;27.932;2023-02-28T01:58:19;6.61;79.72
77839;SHT31;67034;43.226;27.932;2023-02-28T02:00:45;6.62;79.44
77839;SHT31;67034;43.226;27.932;2023-02-28T02:03:14;6.08;80.36
77839;SHT31;67034;43.226;27.932;2023-02-28T02:05:41;6.13;81.07
77839;SHT31;67034;43.226;27.932;2023-02-28T02:08:11;6.28;80.26
77839;SHT31;67034;43.226;27.932;2023-02-28T02:10:41;6.14;80.99
77839;SHT31;67034;43.226;27.932;2023-02-28T02:13:28;5.90;81.34
77839;SHT31;67034;43.226;27.932;2023-02-28T02:16:02;6.08;81.48
77839;SHT31;67034;43.226;27.932;2023-02-28T02:18:34;5.66;80.75
77839;SHT31;67034;43.226;27.932;2023-02-28T02:21:15;5.48;82.27
77839;SHT31;67034;43.226;27.932;2023-02-28T02:24:13;5.60;82.27
77839;SHT31;67034;43.226;27.932;2023-02-28T02:26:55;5.58;82.95
77839;SHT31;67034;43.226;27.932;2023-02-28T02:32:49;5.77;82.86
77839;SHT31;67034;43.226;27.932;2023-02-28T02:35:24;5.94;82.11
77839;SHT31;67034;43.226;27.932;2023-02-28T02:37:52;5.76;81.48
77839;SHT31;67034;43.226;27.932;2023-02-28T02:40:22;5.87;82.20
77839;SHT31;67034;43.226;27.932;2023-02-28T02:42:52;5.87;81.53
77839;SHT31;67034;43.226;27.932;2023-02-28T02:45:25;5.80;82.04
77839;SHT31;67034;43.226;27.932;2023-02-28T02:47:51;6.17;80.87
77839;SHT31;67034;43.226;27.932;2023-02-28T02:50:17;6.39;79.58
77839;SHT31;67034;43.226;27.932;2023-02-28T02:52:51;6.48;78.86
77839;SHT31;67034;43.226;27.932;2023-02-28T02:55:18;6.48;78.43
77839;SHT31;67034;43.226;27.932;2023-02-28T02:57:48;6.27;79.91
77839;SHT31;67034;43.226;27.932;2023-02-28T03:00:16;6.16;80.26
77839;SHT31;67034;43.226;27.932;2023-02-28T03:02:44;5.69;80.87
77839;SHT31;67034;43.226;27.932;2023-02-28T03:05:16;5.87;81.30
77839;SHT31;67034;43.226;27.932;2023-02-28T03:07:43;6.08;80.83
77839;SHT31;67034;43.226;27.932;2023-02-28T03:10:34;6.01;80.46
77839;SHT31;67034;43.226;27.932;2023-02-28T03:13:15;6.17;79.35
77839;SHT31;67034;43.226;27.932;2023-02-28T03:15:55;6.38;78.31
77839;SHT31;67034;43.226;27.932;2023-02-28T03:18:26;6.46;78.10
77839;SHT31;67034;43.226;27.932;2023-02-28T03:21:00;6.52;77.63
77839;SHT31;67034;43.226;27.932;2023-02-28T03:23:34;6.25;78.90
77839;SHT31;67034;43.226;27.932;2023-02-28T03:26:06;6.37;78.23
77839;SHT31;67034;43.226;27.932;2023-02-28T03:28:41;5.56;80.74
77839;SHT31;67034;43.226;27.932;2023-02-28T03:31:16;5.53;82.62
77839;SHT31;67034;43.226;27.932;2023-02-28T03:33:45;5.80;81.55
77839;SHT31;67034;43.226;27.932;2023-02-28T03:36:22;5.96;81.34
77839;SHT31;67034;43.226;27.932;2023-02-28T03:38:53;6.24;80.08
77839;SHT31;67034;43.226;27.932;2023-02-28T03:41:24;5.98;80.39
77839;SHT31;67034;43.226;27.932;2023-02-28T03:43:54;6.03;80.64
77839;SHT31;67034;43.226;27.932;2023-02-28T03:46:24;6.08;80.40
77839;SHT31;67034;43.226;27.932;2023-02-28T03:48:54;6.20;79.01
77839;SHT31;67034;43.226;27.932;2023-02-28T03:51:22;5.91;79.97
77839;SHT31;67034;43.226;27.932;2023-02-28T03:53:50;5.96;80.26
77839;SHT31;67034;43.226;27.932;2023-02-28T03:56:21;5.94;80.12
77839;SHT31;67034;43.226;27.932;2023-02-28T03:58:51;5.97;80.35
77839;SHT31;67034;43.226;27.932;2023-02-28T04:01:23;6.00;80.04
77839;SHT31;67034;43.226;27.932;2023-02-28T04:03:50;5.89;79.68
77839;SHT31;67034;43.226;27.932;2023-02-28T04:06:18;5.52;81.35
77839;SHT31;67034;43.226;27.932;2023-02-28T04:08:44;5.71;81.37
77839;SHT31;67034;43.226;27.932;2023-02-28T04:11:18;5.87;80.64
77839;SHT31;67034;43.226;27.932;2023-02-28T04:13:46;5.77;80.70
77839;SHT31;67034;43.226;27.932;2023-02-28T04:16:12;5.73;81.04
77839;SHT31;67034;43.226;27.932;2023-02-28T04:18:38;6.03;80.31
77839;SHT31;67034;43.226;27.932;2023-02-28T04:21:04;5.76;80.29
77839;SHT31;67034;43.226;27.932;2023-02-28T04:23:30;5.63;80.82
77839;SHT31;67034;43.226;27.932;2023-02-28T04:25:56;5.96;79.94
77839;SHT31;67034;43.226;27.932;2023-02-28T04:28:21;6.13;79.11
77839;SHT31;67034;43.226;27.932;2023-02-28T04:30:54;6.17;78.79
77839;SHT31;67034;43.226;27.932;2023-02-28T04:33:20;6.01;79.65
77839;SHT31;67034;43.226;27.932;2023-02-28T04:35:46;6.16;78.92
77839;SHT31;67034;43.226;27.932;2023-02-28T04:38:11;6.16;78.72
77839;SHT31;67034;43.226;27.932;2023-02-28T04:40:37;5.93;79.90
77839;SHT31;67034;43.226;27.932;2023-02-28T04:43:02;6.00;79.67
77839;SHT31;67034;43.226;27.932;2023-02-28T04:45:28;6.14;79.14
77839;SHT31;67034;43.226;27.932;2023-02-28T04:47:58;6.22;78.59
77839;SHT31;67034;43.226;27.932;2023-02-28T04:50:24;6.21;78.81
77839;SHT31;67034;43.226;27.932;2023-02-28T04:52:50;6.07;78.92
77839;SHT31;67034;43.226;27.932;2023-02-28T04:55:15;6.08;78.91
77839;SHT31;67034;43.226;27.932;2023-02-28T04:57:41;6.10;79.18
77839;SHT31;67034;43.226;27.932;2023-02-28T05:00:09;6.07;79.15
77839;SHT31;67034;43.226;27.932;2023-02-28T05:02:37;6.00;79.45
77839;SHT31;67034;43.226;27.932;2023-02-28T05:05:05;5.91;80.47
77839;SHT31;67034;43.226;27.932;2023-02-28T05:07:31;5.91;80.59
77839;SHT31;67034;43.226;27.932;2023-02-28T05:09:56;5.98;80.68
77839;SHT31;67034;43.226;27.932;2023-02-28T05:12:22;5.96;80.67
77839;SHT31;67034;43.226;27.932;2023-02-28T05:14:48;5.97;80.40
77839;SHT31;67034;43.226;27.932;2023-02-28T05:17:13;5.98;81.04
77839;SHT31;67034;43.226;27.932;2023-02-28T05:19:39;6.03;80.76
77839;SHT31;67034;43.226;27.932;2023-02-28T05:22:13;6.06;80.71
77839;SHT31;67034;43.226;27.932;2023-02-28T05:24:39;6.13;80.32
77839;SHT31;67034;43.226;27.932;2023-02-28T05:27:04;5.85;80.91
77839;SHT31;67034;43.226;27.932;2023-02-28T05:29:30;5.74;82.47
77839;SHT31;67034;43.226;27.932;2023-02-28T05:31:56;5.91;82.07
77839;SHT31;67034;43.226;27.932;2023-02-28T05:34:21;6.04;81.45
77839;SHT31;67034;43.226;27.932;2023-02-28T05:36:47;6.16;80.96
77839;SHT31;67034;43.226;27.932;2023-02-28T05:39:14;5.85;81.93
77839;SHT31;67034;43.226;27.932;2023-02-28T05:41:40;6.10;81.17
77839;SHT31;67034;43.226;27.932;2023-02-28T05:44:06;6.14;80.94
77839;SHT31;67034;43.226;27.932;2023-02-28T05:46:32;5.76;82.42
77839;SHT31;67034;43.226;27.932;2023-02-28T05:48:58;5.50;84.32
77839;SHT31;67034;43.226;27.932;2023-02-28T05:51:25;5.73;83.20
77839;SHT31;67034;43.226;27.932;2023-02-28T05:53:51;5.70;82.26
77839;SHT31;67034;43.226;27.932;2023-02-28T05:56:18;5.39;85.36
77839;SHT31;67034;43.226;27.932;2023-02-28T05:58:44;5.19;85.50
77839;SHT31;67034;43.226;27.932;2023-02-28T06:01:22;5.42;86.53
77839;SHT31;67034;43.226;27.932;2023-02-28T06:03:48;5.59;87.07
77839;SHT31;67034;43.226;27.932;2023-02-28T06:06:14;5.53;86.88
77839;SHT31;67034;43.226;27.932;2023-02-28T06:08:39;5.81;86.08
77839;SHT31;67034;43.226;27.932;2023-02-28T06:11:05;5.94;85.68
77839;SHT31;67034;43.226;27.932;2023-02-28T06:13:33;5.93;85.09
77839;SHT31;67034;43.226;27.932;2023-02-28T06:16:00;5.83;85.03
77839;SHT31;67034;43.226;27.932;2023-02-28T06:18:26;5.80;84.92
77839;SHT31;67034;43.226;27.932;2023-02-28T06:20:53;5.77;85.65
77839;SHT31;67034;43.226;27.932;2023-02-28T06:23:19;5.79;85.59
77839;SHT31;67034;43.226;27.932;2023-02-28T06:25:45;5.81;86.24
77839;SHT31;67034;43.226;27.932;2023-02-28T06:28:11;5.80;86.02
77839;SHT31;67034;43.226;27.932;2023-02-28T06:30:38;5.63;87.04
77839;SHT31;67034;43.226;27.932;2023-02-28T06:33:04;5.67;86.33
77839;SHT31;67034;43.226;27.932;2023-02-28T06:35:30;5.76;86.29
77839;SHT31;67034;43.226;27.932;2023-02-28T06:37:56;5.80;86.00
77839;SHT31;67034;43.226;27.932;2023-02-28T06:40:24;5.93;86.16
77839;SHT31;67034;43.226;27.932;2023-02-28T06:42:50;6.03;85.17
77839;SHT31;67034;43.226;27.932;2023-02-28T06:45:15;5.98;84.04
77839;SHT31;67034;43.226;27.932;2023-02-28T06:47:42;5.98;84.26
77839;SHT31;67034;43.226;27.932;2023-02-28T06:50:11;6.04;84.19
77839;SHT31;67034;43.226;27.932;2023-02-28T06:52:37;5.77;86.25
77839;SHT31;67034;43.226;27.932;2023-02-28T06:55:03;5.94;84.39
77839;SHT31;67034;43.226;27.932;2023-02-28T06:57:30;5.98;84.06
77839;SHT31;67034;43.226;27.932;2023-02-28T06:59:58;5.97;84.05
77839;SHT31;67034;43.226;27.932;2023-02-28T07:02:24;5.97;84.83
77839;SHT31;67034;43.226;27.932;2023-02-28T07:04:52;5.65;85.61
77839;SHT31;67034;43.226;27.932;2023-02-28T07:07:17;5.85;86.15
77839;SHT31;67034;43.226;27.932;2023-02-28T07:09:43;6.08;85.09
77839;SHT31;67034;43.226;27.932;2023-02-28T07:12:09;6.27;86.67
77839;SHT31;67034;43.226;27.932;2023-02-28T07:14:36;6.31;85.72
77839;SHT31;67034;43.226;27.932;2023-02-28T07:17:02;6.25;83.77
77839;SHT31;67034;43.226;27.932;2023-02-28T07:19:28;6.34;83.11
77839;SHT31;67034;43.226;27.932;2023-02-28T07:21:54;6.24;83.28
77839;SHT31;67034;43.226;27.932;2023-02-28T07:24:20;6.14;83.96
77839;SHT31;67034;43.226;27.932;2023-02-28T07:26:46;6.18;82.37
77839;SHT31;67034;43.226;27.932;2023-02-28T07:29:11;6.22;82.89
77839;SHT31;67034;43.226;27.932;2023-02-28T07:31:37;6.16;83.70
77839;SHT31;67034;43.226;27.932;2023-02-28T07:34:03;6.13;83.57
77839;SHT31;67034;43.226;27.932;2023-02-28T07:36:28;6.21;84.23
77839;SHT31;67034;43.226;27.932;2023-02-28T07:38:55;6.22;84.18
77839;SHT31;67034;43.226;27.932;2023-02-28T07:41:22;6.31;84.94
77839;SHT31;67034;43.226;27.932;2023-02-28T07:43:49;6.32;85.47
77839;SHT31;67034;43.226;27.932;2023-02-28T07:46:16;6.44;85.18
77839;SHT31;67034;43.226;27.932;2023-02-28T07:48:42;6.44;85.27
77839;SHT31;67034;43.226;27.932;2023-02-28T07:51:08;6.45;85.02
77839;SHT31;67034;43.226;27.932;2023-02-28T07:53:34;6.56;84.70
77839;SHT31;67034;43.226;27.932;2023-02-28T07:56:02;6.58;83.15
77839;SHT31;67034;43.226;27.932;2023-02-28T07:58:28;6.45;82.16
77839;SHT31;67034;43.226;27.932;2023-02-28T08:00:55;6.31;82.76
77839;SHT31;67034;43.226;27.932;2023-02-28T08:03:21;6.29;84.71
77839;SHT31;67034;43.226;27.932;2023-02-28T08:05:47;6.29;83.64
77839;SHT31;67034;43.226;27.932;2023-02-28T08:08:13;6.29;83.00
77839;SHT31;67034;43.226;27.932;2023-02-28T08:10:38;6.35;82.42
77839;SHT31;67034;43.226;27.932;2023-02-28T08:13:05;6.29;82.37
77839;SHT31;67034;43.226;27.932;2023-02-28T08:15:31;6.28;82.30
77839;SHT31;67034;43.226;27.932;2023-02-28T08:17:57;6.27;81.71
77839;SHT31;67034;43.226;27.932;2023-02-28T08:20:22;6.24;83.76
77839;SHT31;67034;43.226;27.932;2023-02-28T08:22:49;6.32;84.27
77839;SHT31;67034;43.226;27.932;2023-02-28T08:25:14;6.38;83.50
77839;SHT31;67034;43.226;27.932;2023-02-28T08:27:40;6.50;83.70
77839;SHT31;67034;43.226;27.932;2023-02-28T08:30:10;6.93;85.72
77839;SHT31;67034;43.226;27.932;2023-02-28T08:32:36;7.01;82.72
77839;SHT31;67034;43.226;27.932;2023-02-28T08:35:03;7.04;81.29
77839;SHT31;67034;43.226;27.932;2023-02-28T08:37:29;6.85;81.36
77839;SHT31;67034;43.226;27.932;2023-02-28T08:39:55;6.96;82.35
77839;SHT31;67034;43.226;27.932;2023-02-28T08:42:20;6.92;82.32
77839;SHT31;67034;43.226;27.932;2023-02-28T08:44:46;6.76;82.38
77839;SHT31;67034;43.226;27.932;2023-02-28T08:47:13;6.97;81.32
77839;SHT31;67034;43.226;27.932;2023-02-28T08:49:39;7.17;81.29
77839;SHT31;67034;43.226;27.932;2023-02-28T08:52:04;7.24;79.38
77839;SHT31;67034;43.226;27.932;2023-02-28T08:54:31;7.14;78.27
77839;SHT31;67034;43.226;27.932;2023-02-28T08:56:58;7.30;79.55
77839;SHT31;67034;43.226;27.932;2023-02-28T08:59:24;7.54;79.58
77839;SHT31;67034;43.226;27.932;2023-02-28T09:01:49;7.44;79.04
77839;SHT31;67034;43.226;27.932;2023-02-28T09:04:16;7.68;80.20
77839;SHT31;67034;43.226;27.932;2023-02-28T09:06:42;7.68;78.00
77839;SHT31;67034;43.226;27.932;2023-02-28T09:09:08;7.74;77.76
77839;SHT31;67034;43.226;27.932;2023-02-28T09:11:35;7.65;78.15
77839;SHT31;67034;43.226;27.932;2023-02-28T09:14:02;7.66;77.92
77839;SHT31;67034;43.226;27.932;2023-02-28T09:16:29;7.86;78.61
77839;SHT31;67034;43.226;27.932;2023-02-28T09:18:56;8.07;77.05
77839;SHT31;67034;43.226;27.932;2023-02-28T09:21:23;8.09;77.53
77839;SHT31;67034;43.226;27.932;2023-02-28T09:23:52;8.30;77.44
77839;SHT31;67034;43.226;27.932;2023-02-28T09:26:19;8.40;74.65
77839;SHT31;67034;43.226;27.932;2023-02-28T09:28:46;8.05;75.87
77839;SHT31;67034;43.226;27.932;2023-02-28T09:31:12;7.99;77.18
77839;SHT31;67034;43.226;27.932;2023-02-28T09:33:37;8.13;77.11
77839;SHT31;67034;43.226;27.932;2023-02-28T09:36:04;8.23;77.01
77839;SHT31;67034;43.226;27.932;2023-02-28T09:38:31;8.12;77.08
77839;SHT31;67034;43.226;27.932;2023-02-28T09:40:59;8.05;76.47
77839;SHT31;67034;43.226;27.932;2023-02-28T09:43:27;7.96;77.00
77839;SHT31;67034;43.226;27.932;2023-02-28T09:45:59;8.06;76.08
77839;SHT31;67034;43.226;27.932;2023-02-28T09:48:29;8.14;74.58
77839;SHT31;67034;43.226;27.932;2023-02-28T09:51:02;7.97;74.49
77839;SHT31;67034;43.226;27.932;2023-02-28T09:53:32;7.86;77.36
77839;SHT31;67034;43.226;27.932;2023-02-28T09:56:04;7.68;76.51
77839;SHT31;67034;43.226;27.932;2023-02-28T09:58:34;7.75;77.95
77839;SHT31;67034;43.226;27.932;2023-02-28T10:01:06;7.81;76.86
77839;SHT31;67034;43.226;27.932;2023-02-28T10:03:38;7.78;76.20
77839;SHT31;67034;43.226;27.932;2023-02-28T10:06:08;7.85;77.23
77839;SHT31;67034;43.226;27.932;2023-02-28T10:08:42;7.86;77.41
77839;SHT31;67034;43.226;27.932;2023-02-28T10:11:14;7.78;77.85
77839;SHT31;67034;43.226;27.932;2023-02-28T10:13:50;7.69;77.81
77839;SHT31;67034;43.226;27.932;2023-02-28T10:16:20;7.69;76.75
77839;SHT31;67034;43.226;27.932;2023-02-28T10:18:49;7.71;77.75
77839;SHT31;67034;43.226;27.932;2023-02-28T10:21:20;7.65;78.12
77839;SHT31;67034;43.226;27.932;2023-02-28T10:23:48;7.54;77.98
77839;SHT31;67034;43.226;27.932;2023-02-28T10:26:16;7.52;76.88
77839;SHT31;67034;43.226;27.932;2023-02-28T10:28:43;7.54;78.34
77839;SHT31;67034;43.226;27.932;2023-02-28T10:31:08;7.64;77.52
77839;SHT31;67034;43.226;27.932;2023-02-28T10:33:37;7.65;77.26
77839;SHT31;67034;43.226;27.932;2023-02-28T10:36:04;7.74;76.63
77839;SHT31;67034;43.226;27.932;2023-02-28T10:38:34;7.75;76.65
77839;SHT31;67034;43.226;27.932;2023-02-28T10:41:07;7.65;77.42
77839;SHT31;67034;43.226;27.932;2023-02-28T10:43:34;7.66;76.79
77839;SHT31;67034;43.226;27.932;2023-02-28T10:46:03;7.62;78.05
77839;SHT31;67034;43.226;27.932;2023-02-28T10:48:32;7.65;78.30
77839;SHT31;67034;43.226;27.932;2023-02-28T10:50:58;7.64;78.42
77839;SHT31;67034;43.226;27.932;2023-02-28T10:53:35;7.69;77.82
77839;SHT31;67034;43.226;27.932;2023-02-28T10:56:03;7.78;77.15
77839;SHT31;67034;43.226;27.932;2023-02-28T10:58:44;7.68;76.62
77839;SHT31;67034;43.226;27.932;2023-02-28T11:01:13;7.64;77.23
77839;SHT31;67034;43.226;27.932;2023-02-28T11:03:40;7.59;77.71
77839;SHT31;67034;43.226;27.932;2023-02-28T11:06:07;7.65;78.44
77839;SHT31;67034;43.226;27.932;2023-02-28T11:08:34;7.87;75.37
77839;SHT31;67034;43.226;27.932;2023-02-28T11:11:04;7.86;75.71
77839;SHT31;67034;43.226;27.932;2023-02-28T11:13:34;7.87;77.58
77839;SHT31;67034;43.226;27.932;2023-02-28T11:16:03;7.79;77.53
77839;SHT31;67034;43.226;27.932;2023-02-28T11:18:31;7.78;78.18
77839;SHT31;67034;43.226;27.932;2023-02-28T11:21:01;7.72;77.49
77839;SHT31;67034;43.226;27.932;2023-02-28T11:23:28;7.86;78.02
77839;SHT31;67034;43.226;27.932;2023-02-28T11:25:57;7.97;78.09
77839;SHT31;67034;43.226;27.932;2023-02-28T11:28:26;7.95;78.23
77839;SHT31;67034;43.226;27.932;2023-02-28T11:33:47;7.90;77.73
77839;SHT31;67034;43.226;27.932;2023-02-28T11:36:18;7.76;76.95
77839;SHT31;67034;43.226;27.932;2023-02-28T11:38:45;7.71;77.85
77839;SHT31;67034;43.226;27.932;2023-02-28T11:41:39;7.72;77.19
77839;SHT31;67034;43.226;27.932;2023-02-28T11:44:27;7.76;77.43
77839;SHT31;67034;43.226;27.932;2023-02-28T11:47:02;7.79;77.38
77839;SHT31;67034;43.226;27.932;2023-02-28T11:49:37;7.72;77.08
77839;SHT31;67034;43.226;27.932;2023-02-28T11:52:14;7.71;77.07
77839;SHT31;67034;43.226;27.932;2023-02-28T11:55:03;7.78;76.54
77839;SHT31;67034;43.226;27.932;2023-02-28T11:57:45;7.82;76.55
77839;SHT31;67034;43.226;27.932;2023-02-28T12:00:29;7.86;75.86
77839;SHT31;67034;43.226;27.932;2023-02-28T12:03:10;7.86;76.25
77839;SHT31;67034;43.226;27.932;2023-02-28T12:05:44;7.81;76.54
77839;SHT31;67034;43.226;27.932;2023-02-28T12:08:23;7.89;76.54
77839;SHT31;67034;43.226;27.932;2023-02-28T12:11:00;7.81;76.64
77839;SHT31;67034;43.226;27.932;2023-02-28T12:13:35;7.79;76.34
77839;SHT31;67034;43.226;27.932;2023-02-28T12:19:22;7.82;76.36
77839;SHT31;67034;43.226;27.932;2023-02-28T12:22:04;7.79;75.90
77839;SHT31;67034;43.226;27.932;2023-02-28T12:24:55;7.75;76.89
77839;SHT31;67034;43.226;27.932;2023-02-28T12:27:25;7.82;76.01
77839;SHT31;67034;43.226;27.932;2023-02-28T12:29:56;7.68;76.33
77839;SHT31;67034;43.226;27.932;2023-02-28T12:32:27;7.55;76.69
77839;SHT31;67034;43.226;27.932;2023-02-28T12:35:00;7.48;77.17
77839;SHT31;67034;43.226;27.932;2023-02-28T12:37:31;7.50;76.57
77839;SHT31;67034;43.226;27.932;2023-02-28T12:40:02;7.41;77.33
77839;SHT31;67034;43.226;27.932;2023-02-28T12:42:33;7.40;77.28
77839;SHT31;67034;43.226;27.932;2023-02-28T12:45:04;7.43;75.96
77839;SHT31;67034;43.226;27.932;2023-02-28T12:47:32;7.38;76.92
77839;SHT31;67034;43.226;27.932;2023-02-28T12:50:01;7.24;77.39
77839;SHT31;67034;43.226;27.932;2023-02-28T12:52:35;7.14;78.02
77839;SHT31;67034;43.226;27.932;2023-02-28T12:55:06;7.24;78.32
77839;SHT31;67034;43.226;27.932;2023-02-28T12:57:37;7.23;77.37
77839;SHT31;67034;43.226;27.932;2023-02-28T13:00:12;7.21;77.80
77839;SHT31;67034;43.226;27.932;2023-02-28T13:02:55;7.16;78.28
77839;SHT31;67034;43.226;27.932;2023-02-28T13:05:39;7.11;76.63
77839;SHT31;67034;43.226;27.932;2023-02-28T13:08:42;7.00;78.44
77839;SHT31;67034;43.226;27.932;2023-02-28T13:11:25;6.83;78.32
77839;SHT31;67034;43.226;27.932;2023-02-28T13:14:02;6.92;78.57
77839;SHT31;67034;43.226;27.932;2023-02-28T13:16:47;6.99;78.80
77839;SHT31;67034;43.226;27.932;2023-02-28T13:19:18;7.03;78.84
77839;SHT31;67034;43.226;27.932;2023-02-28T13:21:47;7.01;78.10
77839;SHT31;67034;43.226;27.932;2023-02-28T13:24:43;6.99;78.17
77839;SHT31;67034;43.226;27.932;2023-02-28T13:27:37;6.96;77.80
77839;SHT31;67034;43.226;27.932;2023-02-28T13:33:29;6.87;78.82
77839;SHT31;67034;43.226;27.932;2023-02-28T13:36:23;6.93;78.24
77839;SHT31;67034;43.226;27.932;2023-02-28T13:38:51;6.92;78.51
77839;SHT31;67034;43.226;27.932;2023-02-28T13:41:45;6.89;78.11
77839;SHT31;67034;43.226;27.932;2023-02-28T13:44:16;6.83;79.11
77839;SHT31;67034;43.226;27.932;2023-02-28T13:47:20;6.96;77.78
77839;SHT31;67034;43.226;27.932;2023-02-28T13:49:47;6.77;78.53
77839;SHT31;67034;43.226;27.932;2023-02-28T13:52:18;6.72;79.08
77839;SHT31;67034;43.226;27.932;2023-02-28T13:54:55;6.75;78.86
77839;SHT31;67034;43.226;27.932;2023-02-28T13:57:33;6.75;79.59
77839;SHT31;67034;43.226;27.932;2023-02-28T14:00:15;6.75;79.51
77839;SHT31;67034;43.226;27.932;2023-02-28T14:05:35;6.85;79.09
77839;SHT31;67034;43.226;27.932;2023-02-28T14:08:06;6.93;79.14
77839;SHT31;67034;43.226;27.932;2023-02-28T14:10:36;6.76;79.15
77839;SHT31;67034;43.226;27.932;2023-02-28T14:13:17;6.75;79.54
77839;SHT31;67034;43.226;27.932;2023-02-28T14:16:02;6.72;79.22
77839;SHT31;67034;43.226;27.932;2023-02-28T14:18:31;6.69;79.46
77839;SHT31;67034;43.226;27.932;2023-02-28T14:21:16;6.66;79.43
77839;SHT31;67034;43.226;27.932;2023-02-28T14:24:10;6.64;79.73
77839;SHT31;67034;43.226;27.932;2023-02-28T14:27:00;6.59;79.37
77839;SHT31;67034;43.226;27.932;2023-02-28T14:32:37;6.69;79.83
77839;SHT31;67034;43.226;27.932;2023-02-28T14:35:16;6.64;79.81
77839;SHT31;67034;43.226;27.932;2023-02-28T14:37:44;6.66;78.86
77839;SHT31;67034;43.226;27.932;2023-02-28T14:40:14;6.59;79.05
77839;SHT31;67034;43.226;27.932;2023-02-28T14:42:47;6.49;79.42
77839;SHT31;67034;43.226;27.932;2023-02-28T14:45:18;6.48;80.10
77839;SHT31;67034;43.226;27.932;2023-02-28T14:47:46;6.50;79.91
77839;SHT31;67034;43.226;27.932;2023-02-28T14:50:18;6.53;79.72
77839;SHT31;67034;43.226;27.932;2023-02-28T14:52:44;6.46;80.24
77839;SHT31;67034;43.226;27.932;2023-02-28T14:55:13;6.44;79.45
77839;SHT31;67034;43.226;27.932;2023-02-28T14:57:41;6.45;79.31
77839;SHT31;67034;43.226;27.932;2023-02-28T15:00:14;6.41;79.97
77839;SHT31;67034;43.226;27.932;2023-02-28T15:02:41;6.32;80.00
77839;SHT31;67034;43.226;27.932;2023-02-28T15:05:22;6.38;79.82
77839;SHT31;67034;43.226;27.932;2023-02-28T15:07:49;6.31;80.02
77839;SHT31;67034;43.226;27.932;2023-02-28T15:10:26;6.38;79.74
77839;SHT31;67034;43.226;27.932;2023-02-28T15:12:54;6.39;79.02
77839;SHT31;67034;43.226;27.932;2023-02-28T15:15:22;6.29;80.09
77839;SHT31;67034;43.226;27.932;2023-02-28T15:17:51;6.27;79.92
77839;SHT31;67034;43.226;27.932;2023-02-28T15:20:21;6.24;81.30
77839;SHT31;67034;43.226;27.932;2023-02-28T15:22:48;6.18;80.61
77839;SHT31;67034;43.226;27.932;2023-02-28T15:25:18;6.21;80.88
77839;SHT31;67034;43.226;27.932;2023-02-28T15:27:46;6.32;80.14
77839;SHT31;67034;43.226;27.932;2023-02-28T15:30:16;6.27;81.00
77839;SHT31;67034;43.226;27.932;2023-02-28T15:32:42;6.27;80.48
77839;SHT31;67034;43.226;27.932;2023-02-28T15:35:26;6.13;80.67
77839;SHT31;67034;43.226;27.932;2023-02-28T15:37:54;5.98;82.64
77839;SHT31;67034;43.226;27.932;2023-02-28T15:40:23;6.59;81.98
77839;SHT31;67034;43.226;27.932;2023-02-28T15:43:14;6.29;80.35
77839;SHT31;67034;43.226;27.932;2023-02-28T15:45:45;6.22;81.19
77839;SHT31;67034;43.226;27.932;2023-02-28T15:48:17;6.10;80.98
77839;SHT31;67034;43.226;27.932;2023-02-28T15:50:48;6.04;81.64
77839;SHT31;67034;43.226;27.932;2023-02-28T15:53:17;6.07;81.14
77839;SHT31;67034;43.226;27.932;2023-02-28T15:55:44;6.03;81.45
77839;SHT31;67034;43.226;27.932;2023-02-28T15:58:11;6.04;80.90
77839;SHT31;67034;43.226;27.932;2023-02-28T16:00:38;5.89;81.95
77839;SHT31;67034;43.226;27.932;2023-02-28T16:03:25;5.77;82.39
77839;SHT31;67034;43.226;27.932;2023-02-28T16:06:17;5.77;83.01